createdAt,value
2022-08-29T00:02:57.379Z,19.40
2022-08-29T00:08:02.389Z,19.36
2022-08-29T00:13:08.087Z,18.11
2022-08-29T00:18:10.802Z,17.61
2022-08-29T00:23:13.952Z,18.10
2022-08-29T00:28:18.062Z,18.69
2022-08-29T00:33:21.295Z,19.09
2022-08-29T00:38:27.698Z,19.27
2022-08-29T00:43:34.849Z,18.27
2022-08-29T00:48:39.205Z,18.60
2022-08-29T00:53:45.734Z,19.16
2022-08-29T00:58:54.955Z,19.10
2022-08-29T01:03:57.736Z,17.53
2022-08-29T01:09:00.403Z,18.30
2022-08-29T01:14:06.007Z,18.65
2022-08-29T01:19:16.276Z,18.55
2022-08-29T01:24:39.090Z,18.96
2022-08-29T01:29:42.238Z,17.82
2022-08-29T01:34:45.526Z,17.72
2022-08-29T01:39:49.680Z,17.72
2022-08-29T01:44:55.688Z,18.57
2022-08-29T01:49:59.651Z,18.91
2022-08-29T01:55:03.792Z,18.86
2022-08-29T02:00:10.201Z,19.01
2022-08-29T02:05:13.113Z,18.99
2022-08-29T02:10:17.113Z,18.83
2022-08-29T02:15:19.763Z,18.36
2022-08-29T02:20:22.379Z,18.05
2022-08-29T02:25:46.509Z,18.27
2022-08-29T02:30:56.466Z,18.01
2022-08-29T02:36:01.164Z,16.77
2022-08-29T02:41:08.543Z,18.19
2022-08-29T02:46:17.374Z,18.14
2022-08-29T02:51:22.970Z,18.33
2022-08-29T02:56:27.600Z,18.50
2022-08-29T03:01:31.316Z,18.58
2022-08-29T03:06:34.565Z,18.20
2022-08-29T03:11:38.597Z,18.46
2022-08-29T03:16:41.223Z,17.84
2022-08-29T03:21:45.236Z,18.49
2022-08-29T03:26:56.300Z,18.29
2022-08-29T03:31:59.711Z,17.80
2022-08-29T03:37:02.387Z,17.47
2022-08-29T03:42:07.475Z,17.49
2022-08-29T03:47:10.790Z,17.12
2022-08-29T03:52:13.731Z,17.76
2022-08-29T03:57:17.864Z,18.00
2022-08-29T04:02:20.563Z,17.82
2022-08-29T04:07:23.474Z,17.47
2022-08-29T04:12:27.458Z,18.09
2022-08-29T04:17:30.069Z,18.23
2022-08-29T04:22:32.808Z,18.22
2022-08-29T04:27:37.671Z,18.19
2022-08-29T04:32:40.379Z,17.35
2022-08-29T04:37:44.307Z,17.89
2022-08-29T04:42:51.336Z,15.98
2022-08-29T04:47:54.147Z,17.10
2022-08-29T04:52:57.263Z,17.76
2022-08-29T04:58:01.613Z,17.10
2022-08-29T05:03:07.744Z,16.94
2022-08-29T05:08:10.714Z,17.61
2022-08-29T05:13:14.776Z,17.39
2022-08-29T05:18:18.758Z,17.06
2022-08-29T05:23:21.493Z,17.09
2022-08-29T05:28:26.579Z,16.89
2022-08-29T05:33:29.563Z,17.69
2022-08-29T05:38:32.284Z,17.83
2022-08-29T05:43:37.052Z,17.59
2022-08-29T05:48:42.263Z,17.45
2022-08-29T05:53:45.312Z,17.85
2022-08-29T05:58:49.527Z,18.08
2022-08-29T06:03:52.412Z,17.77
2022-08-29T06:08:56.706Z,18.08
2022-08-29T06:14:01.908Z,17.81
2022-08-29T06:19:04.577Z,17.67
2022-08-29T06:24:07.781Z,17.98
2022-08-29T06:29:12.585Z,18.11
2022-08-29T06:34:15.318Z,17.31
2022-08-29T06:39:18.836Z,17.56
2022-08-29T06:44:23.779Z,18.15
2022-08-29T06:49:27.558Z,17.88
2022-08-29T06:54:31.027Z,17.86
2022-08-29T06:59:35.387Z,18.25
2022-08-29T07:04:38.532Z,18.18
2022-08-29T07:09:41.201Z,17.92
2022-08-29T07:14:45.694Z,17.88
2022-08-29T07:19:50.938Z,18.42
2022-08-29T07:24:53.944Z,18.47
2022-08-29T07:29:58.120Z,18.73
2022-08-29T07:35:00.803Z,18.83
2022-08-29T07:40:04.854Z,18.84
2022-08-29T07:45:11.402Z,18.79
2022-08-29T07:50:15.600Z,18.53
2022-08-29T07:55:18.396Z,18.78
2022-08-29T08:00:22.483Z,19.12
2022-08-29T08:05:25.215Z,19.33
2022-08-29T08:10:30.408Z,19.04
2022-08-29T08:15:34.504Z,19.29
2022-08-29T08:20:38.263Z,19.28
2022-08-29T08:25:41.320Z,18.91
2022-08-29T08:30:45.703Z,19.25
2022-08-29T08:35:55.101Z,19.04
2022-08-29T08:41:05.545Z,19.32
2022-08-29T08:46:09.677Z,19.33
2022-08-29T08:51:18.835Z,18.87
2022-08-29T08:56:29.621Z,18.98
2022-08-29T09:01:40.815Z,19.32
2022-08-29T09:06:58.858Z,19.22
2022-08-29T09:12:11.356Z,19.24
2022-08-29T09:17:21.175Z,19.25
2022-08-29T09:22:27.621Z,19.51
2022-08-29T09:27:37.542Z,19.35
2022-08-29T09:32:57.846Z,20.00
2022-08-29T09:38:04.236Z,20.44
2022-08-29T09:43:07.993Z,20.65
2022-08-29T09:48:17.343Z,20.71
2022-08-29T09:53:25.346Z,19.60
2022-08-29T09:58:36.336Z,20.36
2022-08-29T10:03:52.972Z,20.30
2022-08-29T10:08:59.181Z,20.50
2022-08-29T10:14:04.724Z,20.70
2022-08-29T10:19:13.736Z,20.67
2022-08-29T10:24:30.062Z,21.04
2022-08-29T10:29:51.495Z,21.21
2022-08-29T10:35:04.579Z,20.70
2022-08-29T10:40:17.608Z,20.82
2022-08-29T10:45:36.119Z,20.88
2022-08-29T10:50:50.510Z,21.06
2022-08-29T10:56:01.111Z,21.34
2022-08-29T11:01:13.400Z,21.43
2022-08-29T11:06:22.390Z,21.42
2022-08-29T11:11:29.917Z,21.29
2022-08-29T11:16:38.160Z,21.43
2022-08-29T11:21:47.923Z,21.75
2022-08-29T11:27:02.589Z,22.00
2022-08-29T11:32:09.904Z,22.14
2022-08-29T11:37:40.631Z,22.39
2022-08-29T11:42:50.924Z,22.09
2022-08-29T11:48:02.988Z,22.75
2022-08-29T11:53:16.715Z,22.77
2022-08-29T11:58:46.029Z,22.83
2022-08-29T12:03:51.591Z,22.82
2022-08-29T12:09:08.039Z,22.93
2022-08-29T12:14:34.278Z,23.22
2022-08-29T12:19:48.633Z,23.26
2022-08-29T12:24:57.304Z,23.47
2022-08-29T12:30:00.931Z,23.51
2022-08-29T12:35:49.703Z,23.17
2022-08-29T12:41:18.329Z,23.68
2022-08-29T12:46:27.185Z,24.01
2022-08-29T12:51:37.704Z,23.99
2022-08-29T12:56:52.247Z,24.20
2022-08-29T13:01:57.297Z,24.23
2022-08-29T13:07:02.072Z,24.20
2022-08-29T13:12:15.298Z,24.45
2022-08-29T13:17:20.920Z,24.45
2022-08-29T13:22:23.721Z,24.64
2022-08-29T13:27:27.853Z,24.93
2022-08-29T13:32:31.002Z,24.96
2022-08-29T13:37:36.241Z,25.11
2022-08-29T13:42:46.441Z,25.08
2022-08-29T13:47:57.338Z,25.55
2022-08-29T13:53:00.321Z,25.55
2022-08-29T13:58:05.453Z,25.72
2022-08-29T14:03:09.392Z,25.74
2022-08-29T14:08:13.779Z,25.52
2022-08-29T14:13:18.374Z,25.57
2022-08-29T14:18:21.748Z,25.43
2022-08-29T14:23:24.462Z,25.14
2022-08-29T14:28:29.062Z,25.19
2022-08-29T14:33:33.108Z,25.07
2022-08-29T14:38:37.344Z,25.06
2022-08-29T14:43:41.482Z,24.87
2022-08-29T14:48:44.136Z,24.63
2022-08-29T14:53:54.161Z,24.44
2022-08-29T14:58:59.702Z,24.35
2022-08-29T15:04:02.833Z,23.33
2022-08-29T15:09:06.596Z,24.17
2022-08-29T15:14:16.629Z,24.08
2022-08-29T15:24:43.754Z,23.83
2022-08-29T15:29:47.892Z,23.80
2022-08-29T15:34:51.962Z,23.57
2022-08-29T15:39:55.166Z,23.51
2022-08-29T15:45:02.547Z,23.28
2022-08-29T15:50:11.026Z,23.49
2022-08-29T15:55:14.697Z,23.38
2022-08-29T16:00:29.840Z,23.37
2022-08-29T16:05:36.483Z,23.37
2022-08-29T16:10:39.449Z,23.25
2022-08-29T16:15:44.271Z,22.95
2022-08-29T16:20:47.580Z,23.19
2022-08-29T16:25:52.857Z,23.25
2022-08-29T16:30:56.983Z,23.10
2022-08-29T16:36:00.666Z,23.15
2022-08-29T16:41:07.360Z,23.17
2022-08-29T16:46:14.768Z,23.03
2022-08-29T16:51:19.140Z,23.12
2022-08-29T16:56:22.167Z,23.20
2022-08-29T17:01:27.409Z,23.16
2022-08-29T17:06:30.617Z,23.08
2022-08-29T17:11:32.321Z,22.98
2022-08-29T17:16:36.735Z,22.84
2022-08-29T17:21:39.899Z,22.85
2022-08-29T17:26:45.217Z,23.02
2022-08-29T17:31:49.318Z,22.96
2022-08-29T17:36:54.704Z,22.81
2022-08-29T17:41:57.420Z,22.76
2022-08-29T17:47:02.597Z,22.81
2022-08-29T17:52:06.799Z,22.54
2022-08-29T17:57:09.459Z,22.63
2022-08-29T18:02:13.611Z,22.62
2022-08-29T18:07:17.184Z,22.55
2022-08-29T18:12:20.493Z,22.47
2022-08-29T18:17:25.694Z,22.35
2022-08-29T18:22:29.392Z,22.35
2022-08-29T18:27:33.746Z,22.02
2022-08-29T18:32:38.449Z,21.99
2022-08-29T18:37:41.419Z,22.16
2022-08-29T18:42:44.259Z,22.11
2022-08-29T18:47:52.536Z,21.94
2022-08-29T18:52:55.648Z,21.94
2022-08-29T18:57:58.517Z,21.11
2022-08-29T19:03:03.701Z,21.23
2022-08-29T19:08:07.100Z,21.60
2022-08-29T19:13:09.942Z,21.25
2022-08-29T19:18:15.739Z,21.57
2022-08-29T19:23:19.704Z,21.28
2022-08-29T19:28:22.689Z,21.50
2022-08-29T19:33:27.157Z,21.40
2022-08-29T19:38:30.233Z,21.11
2022-08-29T19:43:34.756Z,21.29
2022-08-29T19:48:41.850Z,21.16
2022-08-29T19:53:45.333Z,21.33
2022-08-29T19:58:49.471Z,21.21
2022-08-29T20:03:54.173Z,21.33
2022-08-29T20:08:58.685Z,21.17
2022-08-29T20:14:02.062Z,21.18
2022-08-29T20:19:06.608Z,21.15
2022-08-29T20:24:10.274Z,21.00
2022-08-29T20:29:20.568Z,20.97
2022-08-29T20:34:28.241Z,20.74
2022-08-29T20:39:31.394Z,20.89
2022-08-29T20:44:37.736Z,20.62
2022-08-29T20:49:43.888Z,20.93
2022-08-29T20:54:47.145Z,20.49
2022-08-29T20:59:49.785Z,20.81
2022-08-29T21:05:11.271Z,20.30
2022-08-29T21:10:14.312Z,20.91
2022-08-29T21:15:17.211Z,20.92
2022-08-29T21:20:21.216Z,20.90
2022-08-29T21:25:23.849Z,20.56
2022-08-29T21:30:26.764Z,20.94
2022-08-29T21:35:30.967Z,20.68
2022-08-29T21:40:33.926Z,20.38
2022-08-29T21:45:36.640Z,20.51
2022-08-29T21:50:40.850Z,20.53
2022-08-29T21:55:43.590Z,20.69
2022-08-29T22:00:46.308Z,20.32
2022-08-29T22:05:52.663Z,20.50
2022-08-29T22:10:58.393Z,20.13
2022-08-29T22:16:18.821Z,20.07
2022-08-29T22:21:33.951Z,20.59
2022-08-29T22:26:38.556Z,20.74
2022-08-29T22:31:42.423Z,20.74
2022-08-29T22:36:46.877Z,20.50
2022-08-29T22:41:49.511Z,20.66
2022-08-29T22:46:52.810Z,20.37
2022-08-29T22:51:56.845Z,20.49
2022-08-29T22:56:59.490Z,20.38
2022-08-29T23:02:02.330Z,20.38
2022-08-29T23:07:07.647Z,20.50
2022-08-29T23:12:12.586Z,20.31
2022-08-29T23:17:16.908Z,20.13
2022-08-29T23:22:20.887Z,20.24
2022-08-29T23:27:23.571Z,20.42
2022-08-29T23:32:28.921Z,20.30
2022-08-29T23:37:35.614Z,20.37
2022-08-29T23:42:38.286Z,20.26
2022-08-29T23:47:41.468Z,20.28
2022-08-29T23:52:46.678Z,20.31
2022-08-29T23:57:49.699Z,20.33
